createdAt,value
2023-01-09T00:00:08.926Z,-3.06
2023-01-09T00:01:26.579Z,-2.61
2023-01-09T00:02:28.357Z,-2.69
2023-01-09T00:03:30.135Z,-2.52
2023-01-09T00:04:32.228Z,-4.17
2023-01-09T00:05:33.981Z,-3.44
2023-01-09T00:06:36.451Z,-3.48
2023-01-09T00:07:38.410Z,-4.83
2023-01-09T00:08:40.275Z,-4.05
2023-01-09T00:09:41.990Z,-2.47
2023-01-09T00:10:43.739Z,-2.88
2023-01-09T00:11:45.483Z,-2.83
2023-01-09T00:12:47.214Z,-2.53
2023-01-09T00:13:50.106Z,-2.64
2023-01-09T00:14:52.533Z,-3.33
2023-01-09T00:15:54.292Z,-2.69
2023-01-09T00:16:56.328Z,-3.48
2023-01-09T00:17:58.051Z,-3.43
2023-01-09T00:18:59.821Z,-3.03
2023-01-09T00:20:01.623Z,-2.79
2023-01-09T00:21:05.801Z,-2.74
2023-01-09T00:22:07.530Z,-3.36
2023-01-09T00:23:09.211Z,-2.78
2023-01-09T00:24:10.961Z,-2.82
2023-01-09T00:25:12.848Z,-4.39
2023-01-09T00:26:18.141Z,-4.73
2023-01-09T00:27:19.930Z,-3.06
2023-01-09T00:28:21.672Z,-3.08
2023-01-09T00:29:23.402Z,-2.62
2023-01-09T00:30:25.414Z,-2.50
2023-01-09T00:31:27.331Z,-2.62
2023-01-09T00:32:29.315Z,-3.67
2023-01-09T00:33:37.115Z,-3.11
2023-01-09T00:34:39.135Z,-2.64
2023-01-09T00:35:40.991Z,-2.46
2023-01-09T00:36:42.746Z,-3.08
2023-01-09T00:37:45.152Z,-2.68
2023-01-09T00:38:46.929Z,-2.74
2023-01-09T00:39:48.867Z,-2.27
2023-01-09T00:40:51.565Z,-2.99
2023-01-09T00:41:56.243Z,-2.94
2023-01-09T00:42:58.269Z,-2.20
2023-01-09T00:44:06.541Z,-2.64
2023-01-09T00:45:11.736Z,-3.15
2023-01-09T00:46:15.400Z,-2.37
2023-01-09T00:47:41.722Z,-2.38
2023-01-09T00:48:47.845Z,-2.60
2023-01-09T00:49:51.882Z,-2.63
2023-01-09T00:50:57.864Z,-2.77
2023-01-09T00:52:00.391Z,-2.53
2023-01-09T00:53:09.211Z,-2.44
2023-01-09T00:54:14.860Z,-2.43
2023-01-09T00:55:17.284Z,-2.59
2023-01-09T00:56:20.955Z,-3.11
2023-01-09T00:57:22.642Z,-2.28
2023-01-09T00:58:24.695Z,-5.27
2023-01-09T00:59:28.114Z,-2.35
2023-01-09T01:00:29.835Z,-2.42
2023-01-09T01:01:31.780Z,-2.50
2023-01-09T01:02:33.684Z,-3.60
2023-01-09T01:03:35.500Z,-2.97
2023-01-09T01:04:37.239Z,-2.72
2023-01-09T01:05:38.935Z,-3.31
2023-01-09T01:06:40.655Z,-3.25
2023-01-09T01:07:42.390Z,-2.65
2023-01-09T01:08:45.914Z,-5.07
2023-01-09T01:09:47.563Z,-3.67
2023-01-09T01:10:49.653Z,-4.87
2023-01-09T01:11:51.400Z,-2.97
2023-01-09T01:12:53.915Z,-3.06
2023-01-09T01:13:56.340Z,-3.11
2023-01-09T01:14:58.320Z,-3.70
2023-01-09T01:16:00.034Z,-3.03
2023-01-09T01:17:02.027Z,-3.00
2023-01-09T01:18:04.097Z,-2.96
2023-01-09T01:19:05.979Z,-3.30
2023-01-09T01:20:14.874Z,-4.36
2023-01-09T01:21:17.214Z,-3.36
2023-01-09T01:22:19.099Z,-3.05
2023-01-09T01:23:20.884Z,-3.03
2023-01-09T01:24:22.863Z,-4.11
2023-01-09T01:25:24.677Z,-3.98
2023-01-09T01:26:26.465Z,-4.25
2023-01-09T01:27:28.964Z,-3.49
2023-01-09T01:28:30.681Z,-3.98
2023-01-09T01:29:32.387Z,-2.86
2023-01-09T01:30:37.811Z,-2.81
2023-01-09T01:31:40.006Z,-2.84
2023-01-09T01:32:42.097Z,-3.84
2023-01-09T01:33:43.743Z,-3.75
2023-01-09T01:34:47.542Z,-3.09
2023-01-09T01:35:49.534Z,-4.01
2023-01-09T01:36:51.230Z,-3.56
2023-01-09T01:37:53.145Z,-3.05
2023-01-09T01:38:54.965Z,-3.16
2023-01-09T01:39:56.637Z,-3.85
2023-01-09T01:40:58.520Z,-3.39
2023-01-09T01:42:00.296Z,-3.36
2023-01-09T01:43:02.044Z,-4.15
2023-01-09T01:44:45.115Z,-4.80
2023-01-09T01:45:46.897Z,-3.39
2023-01-09T01:46:48.561Z,-3.46
2023-01-09T01:47:50.253Z,-3.39
2023-01-09T01:49:18.349Z,-3.29
2023-01-09T01:50:36.799Z,-3.36
2023-01-09T01:51:44.950Z,-4.50
2023-01-09T01:52:57.442Z,-4.46
2023-01-09T01:54:03.326Z,-4.00
2023-01-09T01:55:08.461Z,-3.75
2023-01-09T01:56:20.891Z,-4.50
2023-01-09T01:57:22.895Z,-3.72
2023-01-09T01:58:26.224Z,-3.41
2023-01-09T01:59:44.227Z,-3.50
2023-01-09T02:00:47.785Z,-4.50
2023-01-09T02:01:58.184Z,-3.24
2023-01-09T02:03:01.947Z,-5.04
2023-01-09T02:04:04.568Z,-3.71
2023-01-09T02:05:06.795Z,-3.29
2023-01-09T02:06:09.701Z,-3.14
2023-01-09T02:07:11.581Z,-3.91
2023-01-09T02:08:14.007Z,-4.45
2023-01-09T02:09:16.914Z,-4.27
2023-01-09T02:10:19.575Z,-3.58
2023-01-09T02:11:21.700Z,-3.13
2023-01-09T02:12:25.973Z,-4.30
2023-01-09T02:14:23.688Z,-3.23
2023-01-09T02:15:28.089Z,-3.85
2023-01-09T02:16:45.016Z,-3.14
2023-01-09T02:18:24.861Z,-3.65
2023-01-09T02:20:04.023Z,-3.08
2023-01-09T02:21:35.350Z,-3.26
2023-01-09T02:22:55.765Z,-3.74
2023-01-09T02:24:11.578Z,-4.58
2023-01-09T02:25:43.584Z,-3.21
2023-01-09T02:27:00.351Z,-3.14
2023-01-09T02:28:11.103Z,-4.38
2023-01-09T02:29:34.543Z,-3.20
2023-01-09T02:30:44.495Z,-3.89
2023-01-09T02:32:23.784Z,-3.45
2023-01-09T02:33:25.410Z,-3.40
2023-01-09T02:34:42.867Z,-3.74
2023-01-09T02:36:02.074Z,-3.45
2023-01-09T02:37:39.341Z,-3.56
2023-01-09T02:39:02.436Z,-3.60
2023-01-09T02:40:25.868Z,-3.55
2023-01-09T02:41:47.746Z,-3.77
2023-01-09T02:42:50.829Z,-3.56
2023-01-09T02:44:16.970Z,-3.52
2023-01-09T02:45:18.826Z,-4.17
2023-01-09T02:46:22.644Z,-4.07
2023-01-09T02:47:24.475Z,-3.66
2023-01-09T02:48:26.354Z,-4.53
2023-01-09T02:49:28.593Z,-3.81
2023-01-09T02:50:42.259Z,-5.89
2023-01-09T02:52:01.123Z,-3.96
2023-01-09T02:53:56.592Z,-3.89
2023-01-09T02:55:26.561Z,-3.67
2023-01-09T02:56:49.443Z,-3.90
2023-01-09T02:58:29.885Z,-4.28
2023-01-09T02:59:54.115Z,-4.33
2023-01-09T03:01:15.185Z,-4.14
2023-01-09T03:02:25.904Z,-4.00
2023-01-09T03:03:52.758Z,-3.77
2023-01-09T03:05:21.366Z,-3.61
2023-01-09T03:06:44.141Z,-3.62
2023-01-09T03:08:04.694Z,-3.60
2023-01-09T03:09:20.423Z,-3.64
2023-01-09T03:10:48.045Z,-3.49
2023-01-09T03:12:01.717Z,-3.46
2023-01-09T03:13:04.320Z,-5.03
2023-01-09T03:14:14.803Z,-3.61
2023-01-09T03:15:20.911Z,-3.67
2023-01-09T03:16:31.590Z,-3.47
2023-01-09T03:17:40.548Z,-3.39
2023-01-09T03:18:44.166Z,-3.31
2023-01-09T03:19:46.799Z,-3.64
2023-01-09T03:20:50.055Z,-3.84
2023-01-09T03:21:53.289Z,-3.52
2023-01-09T03:22:57.136Z,-3.50
2023-01-09T03:24:01.547Z,-4.32
2023-01-09T03:25:03.329Z,-3.49
2023-01-09T03:26:05.253Z,-3.47
2023-01-09T03:27:08.526Z,-3.23
2023-01-09T03:28:27.034Z,-3.29
2023-01-09T03:29:29.625Z,-3.26
2023-01-09T03:30:33.161Z,-3.18
2023-01-09T03:31:35.097Z,-4.15
2023-01-09T03:32:36.820Z,-3.95
2023-01-09T03:33:38.514Z,-3.24
2023-01-09T03:34:40.335Z,-3.36
2023-01-09T03:35:42.050Z,-5.34
2023-01-09T03:36:43.762Z,-3.41
2023-01-09T03:37:45.529Z,-3.39
2023-01-09T03:38:47.779Z,-3.48
2023-01-09T03:39:49.567Z,-3.54
2023-01-09T03:40:51.276Z,-4.07
2023-01-09T03:41:53.028Z,-3.59
2023-01-09T03:42:54.647Z,-3.70
2023-01-09T03:43:56.342Z,-4.03
2023-01-09T03:44:58.127Z,-3.79
2023-01-09T03:46:00.387Z,-5.48
2023-01-09T03:47:02.241Z,-3.75
2023-01-09T03:48:04.229Z,-4.97
2023-01-09T03:49:06.046Z,-3.91
2023-01-09T03:50:08.553Z,-5.44
2023-01-09T03:51:10.586Z,-5.05
2023-01-09T03:52:12.340Z,-3.98
2023-01-09T03:53:14.517Z,-5.64
2023-01-09T03:54:16.239Z,-3.94
2023-01-09T03:55:18.064Z,-3.97
2023-01-09T03:56:20.055Z,-5.99
2023-01-09T03:57:21.835Z,-5.83
2023-01-09T03:58:24.918Z,-3.93
2023-01-09T03:59:26.764Z,-4.25
2023-01-09T04:00:28.555Z,-4.08
2023-01-09T04:01:30.341Z,-4.30
2023-01-09T04:02:32.058Z,-4.47
2023-01-09T04:03:33.846Z,-5.39
2023-01-09T04:04:35.635Z,-4.54
2023-01-09T04:05:37.382Z,-4.01
2023-01-09T04:06:39.026Z,-3.93
2023-01-09T04:07:40.839Z,-4.66
2023-01-09T04:08:42.600Z,-4.08
2023-01-09T04:09:44.350Z,-4.09
2023-01-09T04:10:47.410Z,-3.93
2023-01-09T04:11:49.450Z,-5.16
2023-01-09T04:12:51.348Z,-4.75
2023-01-09T04:13:53.155Z,-5.74
2023-01-09T04:14:54.888Z,-3.76
2023-01-09T04:15:56.610Z,-3.73
2023-01-09T04:16:58.358Z,-5.41
2023-01-09T04:18:00.046Z,-3.84
2023-01-09T04:19:01.725Z,-3.99
2023-01-09T04:20:04.479Z,-3.84
2023-01-09T04:21:06.121Z,-4.80
2023-01-09T04:22:07.829Z,-5.09
2023-01-09T04:23:09.641Z,-4.56
2023-01-09T04:24:11.446Z,-4.35
2023-01-09T04:25:13.260Z,-4.62
2023-01-09T04:26:15.017Z,-4.09
2023-01-09T04:27:16.704Z,-4.26
2023-01-09T04:28:18.650Z,-4.58
2023-01-09T04:29:20.419Z,-4.67
2023-01-09T04:30:22.071Z,-5.41
2023-01-09T04:31:23.862Z,-4.38
2023-01-09T04:32:25.728Z,-4.40
2023-01-09T04:33:27.406Z,-4.33
2023-01-09T04:34:29.145Z,-5.27
2023-01-09T04:35:30.973Z,-4.38
2023-01-09T04:36:32.743Z,-5.60
2023-01-09T04:37:34.527Z,-4.31
2023-01-09T04:38:36.245Z,-5.02
2023-01-09T04:39:38.103Z,-4.33
2023-01-09T04:40:39.814Z,-4.39
2023-01-09T04:41:41.497Z,-4.45
2023-01-09T04:42:43.384Z,-5.04
2023-01-09T04:43:45.214Z,-4.26
2023-01-09T04:44:47.014Z,-4.02
2023-01-09T04:45:48.815Z,-3.90
2023-01-09T04:46:50.669Z,-3.84
2023-01-09T04:47:52.359Z,-4.24
2023-01-09T04:48:54.166Z,-4.17
2023-01-09T04:49:55.848Z,-3.74
2023-01-09T04:50:57.632Z,-3.80
2023-01-09T04:51:59.465Z,-3.83
2023-01-09T04:53:01.177Z,-3.83
2023-01-09T04:54:02.986Z,-3.97
2023-01-09T04:55:05.212Z,-3.81
2023-01-09T04:56:07.201Z,-3.80
2023-01-09T04:57:08.908Z,-5.76
2023-01-09T04:58:10.617Z,-4.14
2023-01-09T04:59:12.632Z,-4.48
2023-01-09T05:00:14.781Z,-4.11
2023-01-09T05:01:16.674Z,-4.47
2023-01-09T05:02:18.772Z,-5.82
2023-01-09T05:03:20.489Z,-4.69
2023-01-09T05:04:22.256Z,-5.29
2023-01-09T05:05:24.096Z,-6.46
2023-01-09T05:06:25.779Z,-4.42
2023-01-09T05:07:27.623Z,-4.27
2023-01-09T05:08:29.326Z,-4.48
2023-01-09T05:09:31.107Z,-5.12
2023-01-09T05:10:32.904Z,-4.75
2023-01-09T05:11:34.724Z,-4.58
2023-01-09T05:12:36.602Z,-4.45
2023-01-09T05:13:38.337Z,-5.63
2023-01-09T05:14:40.098Z,-4.40
2023-01-09T05:15:41.719Z,-4.50
2023-01-09T05:16:43.517Z,-4.50
2023-01-09T05:17:45.428Z,-4.86
2023-01-09T05:18:47.175Z,-4.42
2023-01-09T05:19:48.908Z,-4.39
2023-01-09T05:20:50.761Z,-5.14
2023-01-09T05:21:52.425Z,-4.94
2023-01-09T05:22:54.173Z,-6.45
2023-01-09T05:23:56.085Z,-4.59
2023-01-09T05:25:00.274Z,-4.58
2023-01-09T05:26:02.313Z,-5.19
2023-01-09T05:27:04.115Z,-4.92
2023-01-09T05:28:06.168Z,-7.12
2023-01-09T05:29:07.897Z,-4.29
2023-01-09T05:30:11.102Z,-4.22
2023-01-09T05:31:14.076Z,-4.20
2023-01-09T05:32:15.764Z,-6.48
2023-01-09T05:33:17.558Z,-4.32
2023-01-09T05:34:19.474Z,-4.15
2023-01-09T05:35:23.211Z,-5.28
2023-01-09T05:36:25.174Z,-5.67
2023-01-09T05:37:26.923Z,-3.99
2023-01-09T05:38:28.565Z,-4.22
2023-01-09T05:39:30.202Z,-4.12
2023-01-09T05:40:38.562Z,-3.97
2023-01-09T05:41:41.729Z,-4.20
2023-01-09T05:42:44.175Z,-4.09
2023-01-09T05:43:45.884Z,-4.42
2023-01-09T05:44:47.685Z,-4.64
2023-01-09T05:45:49.595Z,-4.12
2023-01-09T05:46:51.363Z,-4.18
2023-01-09T05:47:53.500Z,-4.61
2023-01-09T05:48:55.190Z,-5.01
2023-01-09T05:49:56.897Z,-4.22
2023-01-09T05:50:58.638Z,-5.92
2023-01-09T05:52:00.327Z,-6.18
2023-01-09T05:53:02.031Z,-4.24
2023-01-09T05:54:03.866Z,-4.61
2023-01-09T05:55:07.101Z,-6.08
2023-01-09T05:56:10.712Z,-6.15
2023-01-09T05:57:13.206Z,-5.12
2023-01-09T05:58:14.909Z,-4.33
2023-01-09T05:59:16.710Z,-6.67
2023-01-09T06:00:19.101Z,-4.10
2023-01-09T06:01:23.485Z,-4.85
2023-01-09T06:02:25.771Z,-4.31
2023-01-09T06:03:27.573Z,-4.91
2023-01-09T06:04:29.305Z,-4.24
2023-01-09T06:05:31.005Z,-3.89
2023-01-09T06:06:32.864Z,-4.02
2023-01-09T06:07:34.680Z,-3.96
2023-01-09T06:08:36.440Z,-3.96
2023-01-09T06:09:38.176Z,-4.03
2023-01-09T06:10:39.877Z,-4.13
2023-01-09T06:11:41.582Z,-3.96
2023-01-09T06:12:47.954Z,-3.89
2023-01-09T06:13:49.665Z,-3.83
2023-01-09T06:14:51.415Z,-4.51
2023-01-09T06:15:53.494Z,-4.51
2023-01-09T06:16:55.461Z,-3.68
2023-01-09T06:17:57.162Z,-3.70
2023-01-09T06:18:58.854Z,-3.83
2023-01-09T06:20:00.670Z,-4.39
2023-01-09T06:21:02.386Z,-3.93
2023-01-09T06:22:04.079Z,-4.08
2023-01-09T06:23:05.789Z,-4.05
2023-01-09T06:24:07.848Z,-3.95
2023-01-09T06:25:09.920Z,-4.77
2023-01-09T06:26:11.610Z,-3.90
2023-01-09T06:27:13.323Z,-3.87
2023-01-09T06:28:15.033Z,-4.96
2023-01-09T06:29:16.886Z,-3.84
2023-01-09T06:30:19.812Z,-5.21
2023-01-09T06:31:23.117Z,-4.04
2023-01-09T06:32:24.901Z,-3.94
2023-01-09T06:33:26.643Z,-3.83
2023-01-09T06:34:28.363Z,-5.51
2023-01-09T06:35:30.059Z,-4.46
2023-01-09T06:36:31.697Z,-3.91
2023-01-09T06:37:33.407Z,-4.15
2023-01-09T06:38:35.332Z,-4.17
2023-01-09T06:39:37.201Z,-3.91
2023-01-09T06:40:39.193Z,-3.41
2023-01-09T06:41:41.665Z,-3.50
2023-01-09T06:42:44.963Z,-3.49
2023-01-09T06:43:46.682Z,-3.47
2023-01-09T06:44:48.394Z,-3.59
2023-01-09T06:45:50.232Z,-3.28
2023-01-09T06:46:52.098Z,-3.43
2023-01-09T06:47:53.849Z,-3.57
2023-01-09T06:48:55.577Z,-4.00
2023-01-09T06:49:57.290Z,-5.05
2023-01-09T06:50:59.056Z,-3.92
2023-01-09T06:52:00.779Z,-3.65
2023-01-09T06:53:02.827Z,-3.43
2023-01-09T06:54:04.627Z,-4.35
2023-01-09T06:55:07.487Z,-2.89
2023-01-09T06:56:09.244Z,-5.30
2023-01-09T06:57:10.922Z,-2.96
2023-01-09T06:58:12.908Z,-2.87
2023-01-09T06:59:14.909Z,-2.92
2023-01-09T07:00:17.095Z,-4.86
2023-01-09T07:01:18.975Z,-2.87
2023-01-09T07:02:22.259Z,-2.55
2023-01-09T07:03:24.064Z,-2.63
2023-01-09T07:04:25.996Z,-2.21
2023-01-09T07:05:27.785Z,-2.68
2023-01-09T07:06:29.593Z,-2.67
2023-01-09T07:07:31.435Z,-2.84
2023-01-09T07:08:33.302Z,-2.56
2023-01-09T07:09:35.157Z,-2.35
2023-01-09T07:10:36.913Z,-2.29
2023-01-09T07:11:39.089Z,-2.24
2023-01-09T07:12:40.837Z,-2.20
2023-01-09T07:13:42.700Z,-2.01
2023-01-09T07:14:44.411Z,-1.98
2023-01-09T07:15:46.221Z,-2.59
2023-01-09T07:16:48.019Z,-3.63
2023-01-09T07:17:51.978Z,-1.79
2023-01-09T07:18:53.685Z,-1.85
2023-01-09T07:19:55.522Z,-2.16
2023-01-09T07:20:57.373Z,-1.82
2023-01-09T07:21:59.272Z,-2.09
2023-01-09T07:23:01.000Z,-2.23
2023-01-09T07:24:02.765Z,-1.55
2023-01-09T07:25:05.036Z,-3.04
2023-01-09T07:26:06.764Z,-2.01
2023-01-09T07:27:08.476Z,-2.05
2023-01-09T07:28:10.240Z,-3.32
2023-01-09T07:29:11.946Z,-1.91
2023-01-09T07:30:14.300Z,-1.52
2023-01-09T07:31:16.119Z,-1.24
2023-01-09T07:32:17.931Z,-1.66
2023-01-09T07:33:20.438Z,-1.38
2023-01-09T07:34:22.185Z,-2.00
2023-01-09T07:35:23.918Z,-1.28
2023-01-09T07:36:25.703Z,-1.02
2023-01-09T07:37:27.437Z,-0.88
2023-01-09T07:38:29.122Z,-0.76
2023-01-09T07:39:30.819Z,-1.41
2023-01-09T07:40:32.562Z,-0.66
2023-01-09T07:41:34.356Z,-1.73
2023-01-09T07:42:36.142Z,-0.86
2023-01-09T07:43:39.377Z,-1.02
2023-01-09T07:44:41.083Z,-0.82
2023-01-09T07:45:42.788Z,-0.61
2023-01-09T07:46:44.611Z,-1.88
2023-01-09T07:47:46.545Z,-1.62
2023-01-09T07:48:48.366Z,-1.08
2023-01-09T07:49:50.106Z,-2.18
2023-01-09T07:50:51.851Z,-1.70
2023-01-09T07:51:54.650Z,-0.88
2023-01-09T07:52:56.420Z,-0.99
2023-01-09T07:53:58.140Z,-0.68
2023-01-09T07:54:59.797Z,-0.76
2023-01-09T07:56:01.673Z,-0.91
2023-01-09T07:57:03.970Z,-0.55
2023-01-09T07:58:05.864Z,-0.77
2023-01-09T07:59:08.070Z,-0.44
2023-01-09T08:00:10.372Z,-1.01
2023-01-09T08:01:12.328Z,-0.77
2023-01-09T08:02:14.150Z,-0.18
2023-01-09T08:03:15.926Z,-1.51
2023-01-09T08:04:17.677Z,-0.61
2023-01-09T08:05:19.993Z,-1.22
2023-01-09T08:06:21.797Z,-0.34
2023-01-09T08:07:23.794Z,-0.25
2023-01-09T08:08:25.805Z,-0.67
2023-01-09T08:09:27.466Z,0.01
2023-01-09T08:10:29.201Z,-0.40
2023-01-09T08:11:30.872Z,-1.04
2023-01-09T08:12:32.642Z,-1.25
2023-01-09T08:13:34.617Z,0.18
2023-01-09T08:14:36.319Z,-0.36
2023-01-09T08:15:38.115Z,0.12
2023-01-09T08:16:39.908Z,-0.19
2023-01-09T08:17:43.295Z,-0.44
2023-01-09T08:18:45.023Z,-0.65
2023-01-09T08:19:46.762Z,0.06
2023-01-09T08:20:49.500Z,0.09
2023-01-09T08:21:51.203Z,0.06
2023-01-09T08:22:52.996Z,0.18
2023-01-09T08:23:54.763Z,-0.41
2023-01-09T08:24:56.458Z,-0.04
2023-01-09T08:25:58.198Z,0.37
2023-01-09T08:27:00.167Z,0.20
2023-01-09T08:28:01.911Z,0.16
2023-01-09T08:29:03.808Z,-0.19
2023-01-09T08:30:06.090Z,0.46
2023-01-09T08:31:08.071Z,0.64
2023-01-09T08:32:09.963Z,0.17
2023-01-09T08:33:11.774Z,0.66
2023-01-09T08:34:13.810Z,-1.20
2023-01-09T08:35:15.668Z,0.60
2023-01-09T08:36:17.432Z,0.66
2023-01-09T08:37:19.302Z,-0.12
2023-01-09T08:38:21.189Z,-0.13
2023-01-09T08:39:22.863Z,0.70
2023-01-09T08:40:24.650Z,0.64
2023-01-09T08:41:26.365Z,0.55
2023-01-09T08:42:28.120Z,0.90
2023-01-09T08:43:29.865Z,0.65
2023-01-09T08:44:31.639Z,0.25
2023-01-09T08:45:33.446Z,0.83
2023-01-09T08:46:35.759Z,0.87
2023-01-09T08:47:37.544Z,1.25
2023-01-09T08:48:39.360Z,0.96
2023-01-09T08:49:41.072Z,1.52
2023-01-09T08:50:43.694Z,1.57
2023-01-09T08:51:45.590Z,1.19
2023-01-09T08:52:47.516Z,1.32
2023-01-09T08:53:49.232Z,1.48
2023-01-09T08:54:50.947Z,1.52
2023-01-09T08:55:52.690Z,0.53
2023-01-09T08:56:54.389Z,1.56
2023-01-09T08:57:56.171Z,1.41
2023-01-09T08:58:57.791Z,1.34
2023-01-09T08:59:59.499Z,2.11
2023-01-09T09:01:05.543Z,2.38
2023-01-09T09:02:07.452Z,2.03
2023-01-09T09:03:09.980Z,1.03
2023-01-09T09:04:11.789Z,2.07
2023-01-09T09:05:13.509Z,2.49
2023-01-09T09:06:15.283Z,2.31
2023-01-09T09:07:17.064Z,2.62
2023-01-09T09:08:19.202Z,3.20
2023-01-09T09:09:20.924Z,2.89
2023-01-09T09:10:24.573Z,3.62
2023-01-09T09:11:26.275Z,3.64
2023-01-09T09:12:28.450Z,3.73
2023-01-09T09:13:30.152Z,3.59
2023-01-09T09:14:31.875Z,3.82
2023-01-09T09:15:33.813Z,3.58
2023-01-09T09:16:35.479Z,3.49
2023-01-09T09:17:37.266Z,4.42
2023-01-09T09:18:39.121Z,4.52
2023-01-09T09:19:40.857Z,5.02
2023-01-09T09:20:42.640Z,4.58
2023-01-09T09:21:44.641Z,5.00
2023-01-09T09:22:47.581Z,5.02
2023-01-09T09:23:49.322Z,4.84
2023-01-09T09:24:51.489Z,4.89
2023-01-09T09:25:53.340Z,4.59
2023-01-09T09:26:55.193Z,4.30
2023-01-09T09:27:57.155Z,4.56
2023-01-09T09:28:59.098Z,5.11
2023-01-09T09:30:00.946Z,5.03
2023-01-09T09:31:06.308Z,2.85
2023-01-09T09:32:08.073Z,4.83
2023-01-09T09:33:09.951Z,5.22
2023-01-09T09:34:11.662Z,5.45
2023-01-09T09:35:13.795Z,5.67
2023-01-09T09:36:15.979Z,5.95
2023-01-09T09:37:17.616Z,5.85
2023-01-09T09:38:19.303Z,6.05
2023-01-09T09:39:20.982Z,6.32
2023-01-09T09:40:46.500Z,6.69
2023-01-09T09:42:14.098Z,6.76
2023-01-09T09:43:48.223Z,6.47
2023-01-09T09:44:54.166Z,7.02
2023-01-09T09:46:30.342Z,7.14
2023-01-09T09:47:53.334Z,7.36
2023-01-09T09:48:59.799Z,7.60
2023-01-09T09:50:01.497Z,6.58
2023-01-09T09:51:24.422Z,7.73
2023-01-09T09:52:54.700Z,7.98
2023-01-09T09:54:14.845Z,8.31
2023-01-09T09:55:37.121Z,8.43
2023-01-09T09:56:48.326Z,7.97
2023-01-09T09:57:51.748Z,8.20
2023-01-09T09:59:00.283Z,8.26
2023-01-09T10:00:04.834Z,7.81
2023-01-09T10:01:08.919Z,8.14
2023-01-09T10:02:29.556Z,8.06
2023-01-09T10:03:34.327Z,7.06
2023-01-09T10:04:43.554Z,8.08
2023-01-09T10:05:49.497Z,8.53
2023-01-09T10:06:56.501Z,8.62
2023-01-09T10:08:15.502Z,8.77
2023-01-09T10:09:37.060Z,8.93
2023-01-09T10:10:48.535Z,8.79
2023-01-09T10:12:06.264Z,7.76
2023-01-09T10:13:11.251Z,9.07
2023-01-09T10:14:23.596Z,6.98
2023-01-09T10:15:44.943Z,7.85
2023-01-09T10:17:11.995Z,8.97
2023-01-09T10:18:54.520Z,9.02
2023-01-09T10:20:20.863Z,9.21
2023-01-09T10:21:34.193Z,9.55
2023-01-09T10:22:47.745Z,8.41
2023-01-09T10:24:04.368Z,9.17
2023-01-09T10:25:12.229Z,8.94
2023-01-09T10:26:23.832Z,8.52
2023-01-09T10:27:53.568Z,9.15
2023-01-09T10:29:08.635Z,9.43
2023-01-09T10:30:41.077Z,9.51
2023-01-09T10:32:04.560Z,9.33
2023-01-09T10:33:52.133Z,8.85
2023-01-09T10:35:14.290Z,8.79
2023-01-09T10:36:33.870Z,7.70
2023-01-09T10:37:44.905Z,7.43
2023-01-09T10:38:51.114Z,8.51
2023-01-09T10:40:04.223Z,8.85
2023-01-09T10:41:24.345Z,8.88
2023-01-09T10:42:47.668Z,9.03
2023-01-09T10:44:07.527Z,8.98
2023-01-09T10:46:04.218Z,9.26
2023-01-09T10:47:16.648Z,8.97
2023-01-09T10:48:34.537Z,9.06
2023-01-09T10:49:38.576Z,8.40
2023-01-09T10:50:44.451Z,7.57
2023-01-09T10:52:16.222Z,8.46
2023-01-09T10:53:28.895Z,8.71
2023-01-09T10:54:30.759Z,8.77
2023-01-09T10:55:44.646Z,7.82
2023-01-09T10:57:02.427Z,8.18
2023-01-09T10:58:12.119Z,8.38
2023-01-09T10:59:14.185Z,7.68
2023-01-09T11:00:23.493Z,8.52
2023-01-09T11:01:39.465Z,7.45
2023-01-09T11:02:41.556Z,6.55
2023-01-09T11:03:43.491Z,8.24
2023-01-09T11:04:45.265Z,8.06
2023-01-09T11:05:59.501Z,7.81
2023-01-09T11:07:10.729Z,7.49
2023-01-09T11:08:22.604Z,7.76
2023-01-09T11:09:24.719Z,7.77
2023-01-09T11:10:44.756Z,7.61
2023-01-09T11:11:46.533Z,7.64
2023-01-09T11:12:48.378Z,7.55
2023-01-09T11:14:04.740Z,6.55
2023-01-09T11:15:22.690Z,6.62
2023-01-09T11:16:24.433Z,7.90
2023-01-09T11:17:27.728Z,7.74
2023-01-09T11:18:29.564Z,7.27
2023-01-09T11:19:32.960Z,7.95
2023-01-09T11:20:34.871Z,7.95
2023-01-09T11:21:38.689Z,6.86
2023-01-09T11:22:45.865Z,7.89
2023-01-09T11:23:47.595Z,7.88
2023-01-09T11:25:00.492Z,7.87
2023-01-09T11:26:03.533Z,7.77
2023-01-09T11:27:14.193Z,7.80
2023-01-09T11:28:15.917Z,7.65
2023-01-09T11:29:20.159Z,7.65
2023-01-09T11:30:23.262Z,7.64
2023-01-09T11:31:25.229Z,7.15
2023-01-09T11:32:29.665Z,7.52
2023-01-09T11:33:37.313Z,7.40
2023-01-09T11:34:39.099Z,7.52
2023-01-09T11:35:57.375Z,7.52
2023-01-09T11:37:03.668Z,7.15
2023-01-09T11:38:17.428Z,7.55
2023-01-09T11:39:28.647Z,6.64
2023-01-09T11:40:37.561Z,7.50
2023-01-09T11:41:39.742Z,7.53
2023-01-09T11:42:41.536Z,7.61
2023-01-09T11:43:48.341Z,7.69
2023-01-09T11:44:58.917Z,7.47
2023-01-09T11:46:03.789Z,7.80
2023-01-09T11:47:25.664Z,7.68
2023-01-09T11:48:34.981Z,7.57
2023-01-09T11:49:36.754Z,7.71
2023-01-09T11:50:38.442Z,7.82
2023-01-09T11:51:40.435Z,7.81
2023-01-09T11:52:42.253Z,7.92
2023-01-09T11:54:02.525Z,7.01
2023-01-09T11:55:14.086Z,7.79
2023-01-09T11:56:17.770Z,8.02
2023-01-09T11:57:21.616Z,7.63
2023-01-09T11:58:23.568Z,7.65
2023-01-09T11:59:28.708Z,8.06
2023-01-09T12:00:38.581Z,7.54
2023-01-09T12:01:45.993Z,6.70
2023-01-09T12:03:06.777Z,7.83
2023-01-09T12:04:41.090Z,7.98
2023-01-09T12:05:42.855Z,7.99
2023-01-09T12:07:06.328Z,7.29
2023-01-09T12:08:08.161Z,8.06
2023-01-09T12:09:28.470Z,7.96
2023-01-09T12:11:16.669Z,7.79
2023-01-09T12:12:30.105Z,7.67
2023-01-09T12:14:00.613Z,6.79
2023-01-09T12:15:20.926Z,7.49
2023-01-09T12:16:41.831Z,7.38
2023-01-09T12:18:17.769Z,7.08
2023-01-09T12:19:41.959Z,7.65
2023-01-09T12:20:59.126Z,7.71
2023-01-09T12:22:13.136Z,7.64
2023-01-09T12:23:50.974Z,7.37
2023-01-09T12:25:18.791Z,6.75
2023-01-09T12:26:20.422Z,7.50
2023-01-09T12:27:40.666Z,7.66
2023-01-09T12:28:57.429Z,7.85
2023-01-09T12:30:02.441Z,8.09
2023-01-09T12:31:52.462Z,8.29
2023-01-09T12:33:02.392Z,7.29
2023-01-09T12:34:36.524Z,8.13
2023-01-09T12:35:43.748Z,8.19
2023-01-09T12:37:06.289Z,8.18
2023-01-09T12:38:20.238Z,8.01
2023-01-09T12:39:31.178Z,7.85
2023-01-09T12:40:39.058Z,6.61
2023-01-09T12:41:40.805Z,7.80
2023-01-09T12:43:13.245Z,7.67
2023-01-09T12:44:37.022Z,6.06
2023-01-09T12:45:50.823Z,7.29
2023-01-09T12:47:00.322Z,6.82
2023-01-09T12:48:07.634Z,7.02
2023-01-09T12:50:02.969Z,7.13
2023-01-09T12:51:30.069Z,7.00
2023-01-09T12:52:38.566Z,6.96
2023-01-09T12:53:52.651Z,6.55
2023-01-09T12:55:04.081Z,6.87
2023-01-09T12:56:15.663Z,6.79
2023-01-09T12:57:29.189Z,6.76
2023-01-09T12:58:49.362Z,6.72
2023-01-09T12:59:56.443Z,5.85
2023-01-09T13:01:00.798Z,6.78
2023-01-09T13:02:37.789Z,6.77
2023-01-09T13:03:48.185Z,6.75
2023-01-09T13:05:14.847Z,6.73
2023-01-09T13:06:20.641Z,4.94
2023-01-09T13:07:36.221Z,6.68
2023-01-09T13:09:04.822Z,5.58
2023-01-09T13:10:22.376Z,6.52
2023-01-09T13:11:44.782Z,6.43
2023-01-09T13:12:49.215Z,6.68
2023-01-09T13:14:04.942Z,5.55
2023-01-09T13:15:36.486Z,5.65
2023-01-09T13:16:43.432Z,5.37
2023-01-09T13:17:56.492Z,6.51
2023-01-09T13:19:11.248Z,6.47
2023-01-09T13:20:42.353Z,6.44
2023-01-09T13:21:44.720Z,6.47
2023-01-09T13:22:48.820Z,6.47
2023-01-09T13:24:09.542Z,6.32
2023-01-09T13:25:20.978Z,6.46
2023-01-09T13:26:35.039Z,6.17
2023-01-09T13:27:40.296Z,6.27
2023-01-09T13:28:51.329Z,6.39
2023-01-09T13:30:20.177Z,6.17
2023-01-09T13:31:36.752Z,6.34
2023-01-09T13:32:50.836Z,6.03
2023-01-09T13:33:59.292Z,6.22
2023-01-09T13:35:01.428Z,6.17
2023-01-09T13:36:03.970Z,6.16
2023-01-09T13:37:15.895Z,5.93
2023-01-09T13:38:22.219Z,6.02
2023-01-09T13:39:35.384Z,6.20
2023-01-09T13:40:37.259Z,6.15
2023-01-09T13:41:48.364Z,6.01
2023-01-09T13:43:04.388Z,5.06
2023-01-09T13:44:18.171Z,6.31
2023-01-09T13:45:37.780Z,6.30
2023-01-09T13:46:43.300Z,6.32
2023-01-09T13:47:45.442Z,6.09
2023-01-09T13:48:47.509Z,6.23
2023-01-09T13:49:58.407Z,5.39
2023-01-09T13:51:37.277Z,6.30
2023-01-09T13:52:43.385Z,6.16
2023-01-09T13:53:46.284Z,6.28
2023-01-09T13:54:53.830Z,5.33
2023-01-09T13:55:58.980Z,6.35
2023-01-09T13:57:16.396Z,5.30
2023-01-09T13:58:19.861Z,5.19
2023-01-09T13:59:28.738Z,6.32
2023-01-09T14:00:36.353Z,6.27
2023-01-09T14:01:42.638Z,6.20
2023-01-09T14:02:44.578Z,6.14
2023-01-09T14:04:14.023Z,6.10
2023-01-09T14:05:25.945Z,5.00
2023-01-09T14:06:27.733Z,5.98
2023-01-09T14:07:34.519Z,5.90
2023-01-09T14:08:36.563Z,6.02
2023-01-09T14:09:44.870Z,5.85
2023-01-09T14:11:13.897Z,5.91
2023-01-09T14:12:16.670Z,5.73
2023-01-09T14:13:22.798Z,5.77
2023-01-09T14:14:30.576Z,5.47
2023-01-09T14:15:38.911Z,4.65
2023-01-09T14:16:40.691Z,5.64
2023-01-09T14:17:42.521Z,5.64
2023-01-09T14:18:53.355Z,5.60
2023-01-09T14:19:58.278Z,5.55
2023-01-09T14:21:04.448Z,5.54
2023-01-09T14:22:07.760Z,4.02
2023-01-09T14:23:41.850Z,5.50
2023-01-09T14:24:46.693Z,5.40
2023-01-09T14:25:49.964Z,4.93
2023-01-09T14:26:56.455Z,5.13
2023-01-09T14:28:01.864Z,5.41
2023-01-09T14:29:31.351Z,5.37
2023-01-09T14:30:35.983Z,4.50
2023-01-09T14:31:37.786Z,5.11
2023-01-09T14:32:43.720Z,5.28